sensor_id;sensor_type;location;lat;lon;timestamp;temperature;humidity
7159;DHT22;63175;52.374;13.132;2022-12-07T00:01:06;3.00;99.90
7159;DHT22;63175;52.374;13.132;2022-12-07T00:03:33;3.00;99.90
7159;DHT22;63175;52.374;13.132;2022-12-07T00:06:01;3.00;99.90
7159;DHT22;63175;52.374;13.132;2022-12-07T00:08:28;3.00;99.90
7159;DHT22;63175;52.374;13.132;2022-12-07T00:11:00;3.00;99.90
7159;DHT22;63175;52.374;13.132;2022-12-07T00:13:27;3.00;99.90
7159;DHT22;63175;52.374;13.132;2022-12-07T00:15:54;3.00;99.90
7159;DHT22;63175;52.374;13.132;2022-12-07T00:18:21;2.90;99.90
7159;DHT22;63175;52.374;13.132;2022-12-07T00:20:48;2.90;99.90
7159;DHT22;63175;52.374;13.132;2022-12-07T00:23:14;2.90;99.90
7159;DHT22;63175;52.374;13.132;2022-12-07T00:25:41;2.90;99.90
7159;DHT22;63175;52.374;13.132;2022-12-07T00:28:09;2.90;99.90
7159;DHT22;63175;52.374;13.132;2022-12-07T00:30:36;2.90;99.90
7159;DHT22;63175;52.374;13.132;2022-12-07T00:33:03;2.80;99.90
7159;DHT22;63175;52.374;13.132;2022-12-07T00:35:30;2.80;99.90
7159;DHT22;63175;52.374;13.132;2022-12-07T00:37:57;2.80;99.90
7159;DHT22;63175;52.374;13.132;2022-12-07T00:40:23;2.80;99.90
7159;DHT22;63175;52.374;13.132;2022-12-07T00:42:50;2.80;99.90
7159;DHT22;63175;52.374;13.132;2022-12-07T00:45:18;2.80;99.90
7159;DHT22;63175;52.374;13.132;2022-12-07T00:47:45;2.70;99.90
7159;DHT22;63175;52.374;13.132;2022-12-07T00:50:12;2.70;99.90
7159;DHT22;63175;52.374;13.132;2022-12-07T00:52:39;2.70;99.90
7159;DHT22;63175;52.374;13.132;2022-12-07T00:55:06;2.70;99.90
7159;DHT22;63175;52.374;13.132;2022-12-07T00:57:33;2.70;99.90
7159;DHT22;63175;52.374;13.132;2022-12-07T01:00:00;2.70;99.90
7159;DHT22;63175;52.374;13.132;2022-12-07T01:02:28;2.70;99.90
7159;DHT22;63175;52.374;13.132;2022-12-07T01:04:55;2.70;99.90
7159;DHT22;63175;52.374;13.132;2022-12-07T01:07:22;2.70;99.90
7159;DHT22;63175;52.374;13.132;2022-12-07T01:09:49;2.70;99.90
7159;DHT22;63175;52.374;13.132;2022-12-07T01:12:15;2.70;99.90
7159;DHT22;63175;52.374;13.132;2022-12-07T01:14:42;2.70;99.90
7159;DHT22;63175;52.374;13.132;2022-12-07T01:17:09;2.70;99.90
7159;DHT22;63175;52.374;13.132;2022-12-07T01:19:37;2.70;99.90
7159;DHT22;63175;52.374;13.132;2022-12-07T01:22:04;2.70;99.90
7159;DHT22;63175;52.374;13.132;2022-12-07T01:24:31;2.70;99.90
7159;DHT22;63175;52.374;13.132;2022-12-07T01:26:58;2.70;99.90
7159;DHT22;63175;52.374;13.132;2022-12-07T01:29:25;2.70;99.90
7159;DHT22;63175;52.374;13.132;2022-12-07T01:31:51;2.70;99.90
7159;DHT22;63175;52.374;13.132;2022-12-07T01:34:18;2.70;99.90
7159;DHT22;63175;52.374;13.132;2022-12-07T01:36:46;2.70;99.90
7159;DHT22;63175;52.374;13.132;2022-12-07T01:39:13;2.70;99.90
7159;DHT22;63175;52.374;13.132;2022-12-07T01:41:41;2.70;99.90
7159;DHT22;63175;52.374;13.132;2022-12-07T01:44:21;2.70;99.90
7159;DHT22;63175;52.374;13.132;2022-12-07T01:46:49;2.70;99.90
7159;DHT22;63175;52.374;13.132;2022-12-07T01:49:21;2.70;99.90
7159;DHT22;63175;52.374;13.132;2022-12-07T01:51:53;2.70;99.90
7159;DHT22;63175;52.374;13.132;2022-12-07T01:54:21;2.70;99.90
7159;DHT22;63175;52.374;13.132;2022-12-07T01:56:51;2.70;99.90
7159;DHT22;63175;52.374;13.132;2022-12-07T01:59:22;2.70;99.90
7159;DHT22;63175;52.374;13.132;2022-12-07T02:01:51;2.70;99.90
7159;DHT22;63175;52.374;13.132;2022-12-07T02:04:19;2.70;99.90
7159;DHT22;63175;52.374;13.132;2022-12-07T02:06:45;2.70;99.90
7159;DHT22;63175;52.374;13.132;2022-12-07T02:09:14;2.70;99.90
7159;DHT22;63175;52.374;13.132;2022-12-07T02:11:41;2.60;99.90
7159;DHT22;63175;52.374;13.132;2022-12-07T02:14:08;2.60;99.90
7159;DHT22;63175;52.374;13.132;2022-12-07T02:16:43;2.60;99.90
7159;DHT22;63175;52.374;13.132;2022-12-07T02:22:34;2.60;99.90
7159;DHT22;63175;52.374;13.132;2022-12-07T02:25:09;2.60;99.90
7159;DHT22;63175;52.374;13.132;2022-12-07T02:27:45;2.60;99.90
7159;DHT22;63175;52.374;13.132;2022-12-07T02:30:15;2.60;99.90
7159;DHT22;63175;52.374;13.132;2022-12-07T02:32:48;2.60;99.90
7159;DHT22;63175;52.374;13.132;2022-12-07T02:35:20;2.50;99.90
7159;DHT22;63175;52.374;13.132;2022-12-07T02:37:55;2.50;99.90
7159;DHT22;63175;52.374;13.132;2022-12-07T02:40:27;2.50;99.90
7159;DHT22;63175;52.374;13.132;2022-12-07T02:43:00;2.50;99.90
7159;DHT22;63175;52.374;13.132;2022-12-07T02:45:31;2.50;99.90
7159;DHT22;63175;52.374;13.132;2022-12-07T02:47:59;2.50;99.90
7159;DHT22;63175;52.374;13.132;2022-12-07T02:50:27;2.50;99.90
7159;DHT22;63175;52.374;13.132;2022-12-07T02:52:54;2.50;99.90
7159;DHT22;63175;52.374;13.132;2022-12-07T02:55:26;2.50;99.90
7159;DHT22;63175;52.374;13.132;2022-12-07T02:58:06;2.50;99.90
7159;DHT22;63175;52.374;13.132;2022-12-07T03:00:44;2.50;99.90
7159;DHT22;63175;52.374;13.132;2022-12-07T03:03:16;2.50;99.90
7159;DHT22;63175;52.374;13.132;2022-12-07T03:05:57;2.50;99.90
7159;DHT22;63175;52.374;13.132;2022-12-07T03:08:32;2.50;99.90
7159;DHT22;63175;52.374;13.132;2022-12-07T03:11:04;2.50;99.90
7159;DHT22;63175;52.374;13.132;2022-12-07T03:13:34;2.50;99.90
7159;DHT22;63175;52.374;13.132;2022-12-07T03:16:09;2.50;99.90
7159;DHT22;63175;52.374;13.132;2022-12-07T03:18:40;2.40;99.90
7159;DHT22;63175;52.374;13.132;2022-12-07T03:21:13;2.40;99.90
7159;DHT22;63175;52.374;13.132;2022-12-07T03:23:43;2.40;99.90
7159;DHT22;63175;52.374;13.132;2022-12-07T03:26:12;2.40;99.90
7159;DHT22;63175;52.374;13.132;2022-12-07T03:28:44;2.40;99.90
7159;DHT22;63175;52.374;13.132;2022-12-07T03:31:16;2.40;99.90
7159;DHT22;63175;52.374;13.132;2022-12-07T03:33:48;2.30;99.90
7159;DHT22;63175;52.374;13.132;2022-12-07T03:36:20;2.30;99.90
7159;DHT22;63175;52.374;13.132;2022-12-07T03:38:51;2.30;99.90
7159;DHT22;63175;52.374;13.132;2022-12-07T03:41:22;2.30;99.90
7159;DHT22;63175;52.374;13.132;2022-12-07T03:43:50;2.30;99.90
7159;DHT22;63175;52.374;13.132;2022-12-07T03:46:23;2.30;99.90
7159;DHT22;63175;52.374;13.132;2022-12-07T03:48:59;2.40;99.90
7159;DHT22;63175;52.374;13.132;2022-12-07T03:51:33;2.40;99.90
7159;DHT22;63175;52.374;13.132;2022-12-07T03:54:07;2.40;99.90
7159;DHT22;63175;52.374;13.132;2022-12-07T03:56:37;2.40;99.90
7159;DHT22;63175;52.374;13.132;2022-12-07T03:59:06;2.40;99.90
7159;DHT22;63175;52.374;13.132;2022-12-07T04:01:34;2.40;99.90
7159;DHT22;63175;52.374;13.132;2022-12-07T04:04:01;2.40;99.90
7159;DHT22;63175;52.374;13.132;2022-12-07T04:06:28;2.40;99.90
7159;DHT22;63175;52.374;13.132;2022-12-07T04:08:55;2.40;99.90
7159;DHT22;63175;52.374;13.132;2022-12-07T04:11:22;2.40;99.90
7159;DHT22;63175;52.374;13.132;2022-12-07T04:13:48;2.40;99.90
7159;DHT22;63175;52.374;13.132;2022-12-07T04:16:34;2.40;99.90
7159;DHT22;63175;52.374;13.132;2022-12-07T04:19:01;2.40;99.90
7159;DHT22;63175;52.374;13.132;2022-12-07T04:21:27;2.40;99.90
7159;DHT22;63175;52.374;13.132;2022-12-07T04:23:54;2.40;99.90
7159;DHT22;63175;52.374;13.132;2022-12-07T04:26:21;2.40;99.90
7159;DHT22;63175;52.374;13.132;2022-12-07T04:28:48;2.40;99.90
7159;DHT22;63175;52.374;13.132;2022-12-07T04:31:15;2.40;99.90
7159;DHT22;63175;52.374;13.132;2022-12-07T04:33:43;2.50;99.90
7159;DHT22;63175;52.374;13.132;2022-12-07T04:36:10;2.50;99.90
7159;DHT22;63175;52.374;13.132;2022-12-07T04:38:36;2.50;99.90
7159;DHT22;63175;52.374;13.132;2022-12-07T04:41:05;2.50;99.90
7159;DHT22;63175;52.374;13.132;2022-12-07T04:43:32;2.50;99.90
7159;DHT22;63175;52.374;13.132;2022-12-07T04:45:59;2.50;99.90
7159;DHT22;63175;52.374;13.132;2022-12-07T04:48:26;2.50;99.90
7159;DHT22;63175;52.374;13.132;2022-12-07T04:50:54;2.60;99.90
7159;DHT22;63175;52.374;13.132;2022-12-07T04:53:21;2.60;99.90
7159;DHT22;63175;52.374;13.132;2022-12-07T04:55:48;2.60;99.90
7159;DHT22;63175;52.374;13.132;2022-12-07T04:58:15;2.60;99.90
7159;DHT22;63175;52.374;13.132;2022-12-07T05:00:42;2.60;99.90
7159;DHT22;63175;52.374;13.132;2022-12-07T05:03:09;2.60;99.90
7159;DHT22;63175;52.374;13.132;2022-12-07T05:05:35;2.60;99.90
7159;DHT22;63175;52.374;13.132;2022-12-07T05:08:04;2.60;99.90
7159;DHT22;63175;52.374;13.132;2022-12-07T05:10:31;2.60;99.90
7159;DHT22;63175;52.374;13.132;2022-12-07T05:12:57;2.60;99.90
7159;DHT22;63175;52.374;13.132;2022-12-07T05:15:24;2.60;99.90
7159;DHT22;63175;52.374;13.132;2022-12-07T05:17:51;2.60;99.90
7159;DHT22;63175;52.374;13.132;2022-12-07T05:20:18;2.60;99.90
7159;DHT22;63175;52.374;13.132;2022-12-07T05:22:45;2.70;99.90
7159;DHT22;63175;52.374;13.132;2022-12-07T05:25:14;2.70;99.90
7159;DHT22;63175;52.374;13.132;2022-12-07T05:27:41;2.70;99.90
7159;DHT22;63175;52.374;13.132;2022-12-07T05:30:08;2.70;99.90
7159;DHT22;63175;52.374;13.132;2022-12-07T05:32:35;2.70;99.90
7159;DHT22;63175;52.374;13.132;2022-12-07T05:35:02;2.70;99.90
7159;DHT22;63175;52.374;13.132;2022-12-07T05:37:29;2.70;99.90
7159;DHT22;63175;52.374;13.132;2022-12-07T05:39:56;2.80;99.90
7159;DHT22;63175;52.374;13.132;2022-12-07T05:42:24;2.80;99.90
7159;DHT22;63175;52.374;13.132;2022-12-07T05:44:51;2.80;99.90
7159;DHT22;63175;52.374;13.132;2022-12-07T05:47:19;2.80;99.90
7159;DHT22;63175;52.374;13.132;2022-12-07T05:49:45;2.90;99.90
7159;DHT22;63175;52.374;13.132;2022-12-07T05:52:12;2.90;99.90
7159;DHT22;63175;52.374;13.132;2022-12-07T05:54:39;2.90;99.90
7159;DHT22;63175;52.374;13.132;2022-12-07T05:57:06;2.90;99.90
7159;DHT22;63175;52.374;13.132;2022-12-07T05:59:34;2.90;99.90
7159;DHT22;63175;52.374;13.132;2022-12-07T06:02:01;3.00;99.90
7159;DHT22;63175;52.374;13.132;2022-12-07T06:04:30;3.00;99.90
7159;DHT22;63175;52.374;13.132;2022-12-07T06:06:57;3.00;99.90
7159;DHT22;63175;52.374;13.132;2022-12-07T06:09:25;3.00;99.90
7159;DHT22;63175;52.374;13.132;2022-12-07T06:11:53;3.00;99.90
7159;DHT22;63175;52.374;13.132;2022-12-07T06:14:39;3.00;99.90
7159;DHT22;63175;52.374;13.132;2022-12-07T06:17:06;3.00;99.90
7159;DHT22;63175;52.374;13.132;2022-12-07T06:19:33;3.00;99.90
7159;DHT22;63175;52.374;13.132;2022-12-07T06:22:02;3.00;99.90
7159;DHT22;63175;52.374;13.132;2022-12-07T06:24:30;3.10;99.90
7159;DHT22;63175;52.374;13.132;2022-12-07T06:26:57;3.10;99.90
7159;DHT22;63175;52.374;13.132;2022-12-07T06:29:24;3.10;99.90
7159;DHT22;63175;52.374;13.132;2022-12-07T06:31:53;3.10;99.90
7159;DHT22;63175;52.374;13.132;2022-12-07T06:34:21;3.10;99.90
7159;DHT22;63175;52.374;13.132;2022-12-07T06:36:49;3.10;99.90
7159;DHT22;63175;52.374;13.132;2022-12-07T06:39:19;3.10;99.90
7159;DHT22;63175;52.374;13.132;2022-12-07T06:41:47;3.10;99.90
7159;DHT22;63175;52.374;13.132;2022-12-07T06:44:14;3.10;99.90
7159;DHT22;63175;52.374;13.132;2022-12-07T06:46:41;3.20;99.90
7159;DHT22;63175;52.374;13.132;2022-12-07T06:49:09;3.20;99.90
7159;DHT22;63175;52.374;13.132;2022-12-07T06:51:36;3.20;99.90
7159;DHT22;63175;52.374;13.132;2022-12-07T06:54:07;3.20;99.90
7159;DHT22;63175;52.374;13.132;2022-12-07T06:56:34;3.20;99.90
7159;DHT22;63175;52.374;13.132;2022-12-07T06:59:01;3.30;99.90
7159;DHT22;63175;52.374;13.132;2022-12-07T07:01:29;3.20;99.90
7159;DHT22;63175;52.374;13.132;2022-12-07T07:03:55;3.30;99.90
7159;DHT22;63175;52.374;13.132;2022-12-07T07:06:24;3.30;99.90
7159;DHT22;63175;52.374;13.132;2022-12-07T07:08:51;3.30;99.90
7159;DHT22;63175;52.374;13.132;2022-12-07T07:11:18;3.30;99.90
7159;DHT22;63175;52.374;13.132;2022-12-07T07:13:45;3.30;99.90
7159;DHT22;63175;52.374;13.132;2022-12-07T07:16:12;3.30;99.90
7159;DHT22;63175;52.374;13.132;2022-12-07T07:18:39;3.30;99.90
7159;DHT22;63175;52.374;13.132;2022-12-07T07:21:06;3.40;99.90
7159;DHT22;63175;52.374;13.132;2022-12-07T07:23:34;3.40;99.90
7159;DHT22;63175;52.374;13.132;2022-12-07T07:26:00;3.40;99.90
7159;DHT22;63175;52.374;13.132;2022-12-07T07:28:27;3.40;99.90
7159;DHT22;63175;52.374;13.132;2022-12-07T07:30:54;3.40;99.90
7159;DHT22;63175;52.374;13.132;2022-12-07T07:33:21;3.40;99.90
7159;DHT22;63175;52.374;13.132;2022-12-07T07:35:48;3.40;99.90
7159;DHT22;63175;52.374;13.132;2022-12-07T07:38:15;3.40;99.90
7159;DHT22;63175;52.374;13.132;2022-12-07T07:40:43;3.40;99.90
7159;DHT22;63175;52.374;13.132;2022-12-07T07:43:10;3.40;99.90
7159;DHT22;63175;52.374;13.132;2022-12-07T07:45:36;3.40;99.90
7159;DHT22;63175;52.374;13.132;2022-12-07T07:48:03;3.40;99.90
7159;DHT22;63175;52.374;13.132;2022-12-07T07:50:30;3.40;99.90
7159;DHT22;63175;52.374;13.132;2022-12-07T07:52:57;3.40;99.90
7159;DHT22;63175;52.374;13.132;2022-12-07T07:55:24;3.40;99.90
7159;DHT22;63175;52.374;13.132;2022-12-07T07:57:54;3.40;99.90
7159;DHT22;63175;52.374;13.132;2022-12-07T08:00:21;3.50;99.90
7159;DHT22;63175;52.374;13.132;2022-12-07T08:02:48;3.50;99.90
7159;DHT22;63175;52.374;13.132;2022-12-07T08:05:16;3.50;99.90
7159;DHT22;63175;52.374;13.132;2022-12-07T08:07:42;3.50;99.90
7159;DHT22;63175;52.374;13.132;2022-12-07T08:10:11;3.50;99.90
7159;DHT22;63175;52.374;13.132;2022-12-07T08:12:40;3.50;99.90
7159;DHT22;63175;52.374;13.132;2022-12-07T08:15:30;3.50;99.90
7159;DHT22;63175;52.374;13.132;2022-12-07T08:17:57;3.50;99.90
7159;DHT22;63175;52.374;13.132;2022-12-07T08:20:24;3.50;99.90
7159;DHT22;63175;52.374;13.132;2022-12-07T08:22:51;3.50;99.90
7159;DHT22;63175;52.374;13.132;2022-12-07T08:25:18;3.50;99.90
7159;DHT22;63175;52.374;13.132;2022-12-07T08:27:44;3.50;99.90
7159;DHT22;63175;52.374;13.132;2022-12-07T08:30:12;3.50;99.90
7159;DHT22;63175;52.374;13.132;2022-12-07T08:32:40;3.50;99.90
7159;DHT22;63175;52.374;13.132;2022-12-07T08:35:08;3.50;99.90
7159;DHT22;63175;52.374;13.132;2022-12-07T08:37:35;3.50;99.90
7159;DHT22;63175;52.374;13.132;2022-12-07T08:40:03;3.60;99.90
7159;DHT22;63175;52.374;13.132;2022-12-07T08:42:30;3.60;99.90
7159;DHT22;63175;52.374;13.132;2022-12-07T08:45:05;3.60;99.90
7159;DHT22;63175;52.374;13.132;2022-12-07T08:47:32;3.70;99.90
7159;DHT22;63175;52.374;13.132;2022-12-07T08:50:02;3.70;99.90
7159;DHT22;63175;52.374;13.132;2022-12-07T08:52:30;3.70;99.90
7159;DHT22;63175;52.374;13.132;2022-12-07T08:54:57;3.80;99.90
7159;DHT22;63175;52.374;13.132;2022-12-07T08:57:25;3.80;99.90
7159;DHT22;63175;52.374;13.132;2022-12-07T08:59:52;3.80;99.90
7159;DHT22;63175;52.374;13.132;2022-12-07T09:02:19;3.90;99.90
7159;DHT22;63175;52.374;13.132;2022-12-07T09:04:45;3.90;99.90
7159;DHT22;63175;52.374;13.132;2022-12-07T09:07:14;4.00;99.90
7159;DHT22;63175;52.374;13.132;2022-12-07T09:09:40;4.00;99.90
7159;DHT22;63175;52.374;13.132;2022-12-07T09:12:08;4.10;99.90
7159;DHT22;63175;52.374;13.132;2022-12-07T09:14:35;4.10;99.90
7159;DHT22;63175;52.374;13.132;2022-12-07T09:17:06;4.10;99.90
7159;DHT22;63175;52.374;13.132;2022-12-07T09:19:33;4.10;99.90
7159;DHT22;63175;52.374;13.132;2022-12-07T09:22:00;4.10;99.90
7159;DHT22;63175;52.374;13.132;2022-12-07T09:24:28;4.10;99.90
7159;DHT22;63175;52.374;13.132;2022-12-07T09:26:55;4.10;99.90
7159;DHT22;63175;52.374;13.132;2022-12-07T09:29:22;4.10;99.90
7159;DHT22;63175;52.374;13.132;2022-12-07T09:31:49;4.20;99.90
7159;DHT22;63175;52.374;13.132;2022-12-07T09:34:16;4.20;99.90
7159;DHT22;63175;52.374;13.132;2022-12-07T09:36:43;4.20;99.90
7159;DHT22;63175;52.374;13.132;2022-12-07T09:39:10;4.20;99.90
7159;DHT22;63175;52.374;13.132;2022-12-07T09:41:39;4.20;99.90
7159;DHT22;63175;52.374;13.132;2022-12-07T09:44:12;4.20;99.90
7159;DHT22;63175;52.374;13.132;2022-12-07T09:46:41;4.20;99.90
7159;DHT22;63175;52.374;13.132;2022-12-07T09:49:12;4.20;99.90
7159;DHT22;63175;52.374;13.132;2022-12-07T09:51:41;4.20;99.90
7159;DHT22;63175;52.374;13.132;2022-12-07T09:54:09;4.10;99.90
7159;DHT22;63175;52.374;13.132;2022-12-07T09:56:40;4.10;99.90
7159;DHT22;63175;52.374;13.132;2022-12-07T09:59:13;4.10;99.90
7159;DHT22;63175;52.374;13.132;2022-12-07T10:01:43;4.00;99.90
7159;DHT22;63175;52.374;13.132;2022-12-07T10:04:14;4.00;99.90
7159;DHT22;63175;52.374;13.132;2022-12-07T10:06:42;4.00;99.90
7159;DHT22;63175;52.374;13.132;2022-12-07T10:09:10;4.00;99.90
7159;DHT22;63175;52.374;13.132;2022-12-07T10:12:04;4.00;99.90
7159;DHT22;63175;52.374;13.132;2022-12-07T10:14:34;4.00;99.90
7159;DHT22;63175;52.374;13.132;2022-12-07T10:17:01;4.00;99.90
7159;DHT22;63175;52.374;13.132;2022-12-07T10:19:30;4.00;99.90
7159;DHT22;63175;52.374;13.132;2022-12-07T10:22:03;4.00;99.90
7159;DHT22;63175;52.374;13.132;2022-12-07T10:24:31;4.00;99.90
7159;DHT22;63175;52.374;13.132;2022-12-07T10:26:58;4.10;99.90
7159;DHT22;63175;52.374;13.132;2022-12-07T10:29:29;4.10;99.90
7159;DHT22;63175;52.374;13.132;2022-12-07T10:31:59;4.10;99.90
7159;DHT22;63175;52.374;13.132;2022-12-07T10:34:28;4.20;99.90
7159;DHT22;63175;52.374;13.132;2022-12-07T10:37:14;4.20;99.90
7159;DHT22;63175;52.374;13.132;2022-12-07T10:39:42;4.40;99.90
7159;DHT22;63175;52.374;13.132;2022-12-07T10:42:17;4.40;99.90
7159;DHT22;63175;52.374;13.132;2022-12-07T10:44:46;4.50;99.90
7159;DHT22;63175;52.374;13.132;2022-12-07T10:47:33;4.60;99.90
7159;DHT22;63175;52.374;13.132;2022-12-07T10:50:19;4.70;99.90
7159;DHT22;63175;52.374;13.132;2022-12-07T10:53:06;4.70;99.90
7159;DHT22;63175;52.374;13.132;2022-12-07T10:55:45;4.80;99.90
7159;DHT22;63175;52.374;13.132;2022-12-07T10:58:27;4.80;99.90
7159;DHT22;63175;52.374;13.132;2022-12-07T11:01:00;4.80;99.90
7159;DHT22;63175;52.374;13.132;2022-12-07T11:03:38;4.80;99.90
7159;DHT22;63175;52.374;13.132;2022-12-07T11:06:19;4.70;99.90
7159;DHT22;63175;52.374;13.132;2022-12-07T11:09:00;4.70;99.90
7159;DHT22;63175;52.374;13.132;2022-12-07T11:11:35;4.70;99.90
7159;DHT22;63175;52.374;13.132;2022-12-07T11:14:09;4.60;99.90
7159;DHT22;63175;52.374;13.132;2022-12-07T11:16:50;4.60;99.90
7159;DHT22;63175;52.374;13.132;2022-12-07T11:19:32;4.60;99.90
7159;DHT22;63175;52.374;13.132;2022-12-07T11:22:06;4.50;99.90
7159;DHT22;63175;52.374;13.132;2022-12-07T11:24:44;4.50;99.90
7159;DHT22;63175;52.374;13.132;2022-12-07T11:27:22;4.50;99.90
7159;DHT22;63175;52.374;13.132;2022-12-07T11:30:08;4.50;99.90
7159;DHT22;63175;52.374;13.132;2022-12-07T11:32:57;4.40;99.90
7159;DHT22;63175;52.374;13.132;2022-12-07T11:35:33;4.40;99.90
7159;DHT22;63175;52.374;13.132;2022-12-07T11:38:09;4.40;99.90
7159;DHT22;63175;52.374;13.132;2022-12-07T11:40:38;4.40;99.90
7159;DHT22;63175;52.374;13.132;2022-12-07T11:43:15;4.50;99.90
7159;DHT22;63175;52.374;13.132;2022-12-07T11:45:47;4.50;99.90
7159;DHT22;63175;52.374;13.132;2022-12-07T11:48:22;4.50;99.90
7159;DHT22;63175;52.374;13.132;2022-12-07T11:50:53;4.50;99.90
7159;DHT22;63175;52.374;13.132;2022-12-07T11:53:25;4.50;99.90
7159;DHT22;63175;52.374;13.132;2022-12-07T11:55:56;4.50;99.90
7159;DHT22;63175;52.374;13.132;2022-12-07T11:58:38;4.50;99.90
7159;DHT22;63175;52.374;13.132;2022-12-07T12:01:21;4.60;99.90
7159;DHT22;63175;52.374;13.132;2022-12-07T12:03:53;4.60;99.90
7159;DHT22;63175;52.374;13.132;2022-12-07T12:06:22;4.60;99.90
7159;DHT22;63175;52.374;13.132;2022-12-07T12:08:54;4.60;99.90
7159;DHT22;63175;52.374;13.132;2022-12-07T12:11:38;4.70;99.90
7159;DHT22;63175;52.374;13.132;2022-12-07T12:14:24;4.70;99.90
7159;DHT22;63175;52.374;13.132;2022-12-07T12:17:17;4.70;99.90
7159;DHT22;63175;52.374;13.132;2022-12-07T12:20:00;4.70;99.90
7159;DHT22;63175;52.374;13.132;2022-12-07T12:22:34;4.80;99.90
7159;DHT22;63175;52.374;13.132;2022-12-07T12:25:05;4.80;99.90
7159;DHT22;63175;52.374;13.132;2022-12-07T12:27:34;4.80;99.90
7159;DHT22;63175;52.374;13.132;2022-12-07T12:30:03;4.80;99.90
7159;DHT22;63175;52.374;13.132;2022-12-07T12:32:36;4.80;99.90
7159;DHT22;63175;52.374;13.132;2022-12-07T12:35:22;4.90;99.90
7159;DHT22;63175;52.374;13.132;2022-12-07T12:37:52;4.90;99.90
7159;DHT22;63175;52.374;13.132;2022-12-07T12:40:42;4.90;99.90
7159;DHT22;63175;52.374;13.132;2022-12-07T12:43:39;4.90;99.90
7159;DHT22;63175;52.374;13.132;2022-12-07T12:49:43;4.90;99.90
7159;DHT22;63175;52.374;13.132;2022-12-07T12:58:36;4.90;99.90
7159;DHT22;63175;52.374;13.132;2022-12-07T13:04:24;4.90;99.90
7159;DHT22;63175;52.374;13.132;2022-12-07T13:06:52;4.90;99.90
7159;DHT22;63175;52.374;13.132;2022-12-07T13:09:22;4.90;99.90
7159;DHT22;63175;52.374;13.132;2022-12-07T13:11:58;4.90;99.90
7159;DHT22;63175;52.374;13.132;2022-12-07T13:18:00;4.80;99.90
7159;DHT22;63175;52.374;13.132;2022-12-07T13:20:48;4.80;99.90
7159;DHT22;63175;52.374;13.132;2022-12-07T13:23:19;4.80;99.90
7159;DHT22;63175;52.374;13.132;2022-12-07T13:25:55;4.70;99.90
7159;DHT22;63175;52.374;13.132;2022-12-07T13:28:31;4.70;99.90
7159;DHT22;63175;52.374;13.132;2022-12-07T13:31:17;4.70;99.90
7159;DHT22;63175;52.374;13.132;2022-12-07T13:33:47;4.70;99.90
7159;DHT22;63175;52.374;13.132;2022-12-07T13:36:21;4.70;99.90
7159;DHT22;63175;52.374;13.132;2022-12-07T13:38:54;4.70;99.90
7159;DHT22;63175;52.374;13.132;2022-12-07T13:41:22;4.70;99.90
7159;DHT22;63175;52.374;13.132;2022-12-07T13:43:54;4.70;99.90
7159;DHT22;63175;52.374;13.132;2022-12-07T13:46:36;4.70;99.90
7159;DHT22;63175;52.374;13.132;2022-12-07T13:49:17;4.60;99.90
7159;DHT22;63175;52.374;13.132;2022-12-07T13:51:45;4.60;99.90
7159;DHT22;63175;52.374;13.132;2022-12-07T13:54:13;4.60;99.90
7159;DHT22;63175;52.374;13.132;2022-12-07T13:56:40;4.60;99.90
7159;DHT22;63175;52.374;13.132;2022-12-07T13:59:14;4.60;99.90
7159;DHT22;63175;52.374;13.132;2022-12-07T14:01:42;4.60;99.90
7159;DHT22;63175;52.374;13.132;2022-12-07T14:04:31;4.60;99.90
7159;DHT22;63175;52.374;13.132;2022-12-07T14:06:59;4.60;99.90
7159;DHT22;63175;52.374;13.132;2022-12-07T14:09:28;4.60;99.90
7159;DHT22;63175;52.374;13.132;2022-12-07T14:11:56;4.60;99.90
7159;DHT22;63175;52.374;13.132;2022-12-07T14:14:27;4.60;99.90
7159;DHT22;63175;52.374;13.132;2022-12-07T14:16:58;4.50;99.90
7159;DHT22;63175;52.374;13.132;2022-12-07T14:19:46;4.50;99.90
7159;DHT22;63175;52.374;13.132;2022-12-07T14:22:27;4.50;99.90
7159;DHT22;63175;52.374;13.132;2022-12-07T14:25:19;4.50;99.90
7159;DHT22;63175;52.374;13.132;2022-12-07T14:27:56;4.50;99.90
7159;DHT22;63175;52.374;13.132;2022-12-07T14:30:26;4.50;99.90
7159;DHT22;63175;52.374;13.132;2022-12-07T14:32:57;4.50;99.90
7159;DHT22;63175;52.374;13.132;2022-12-07T14:35:24;4.40;99.90
7159;DHT22;63175;52.374;13.132;2022-12-07T14:37:51;4.40;99.90
7159;DHT22;63175;52.374;13.132;2022-12-07T14:40:20;4.40;99.90
7159;DHT22;63175;52.374;13.132;2022-12-07T14:42:49;4.40;99.90
7159;DHT22;63175;52.374;13.132;2022-12-07T14:45:18;4.40;99.90
7159;DHT22;63175;52.374;13.132;2022-12-07T14:47:47;4.30;99.90
7159;DHT22;63175;52.374;13.132;2022-12-07T14:50:16;4.30;99.90
7159;DHT22;63175;52.374;13.132;2022-12-07T14:52:46;4.20;99.90
7159;DHT22;63175;52.374;13.132;2022-12-07T14:55:19;4.20;99.90
7159;DHT22;63175;52.374;13.132;2022-12-07T14:57:47;4.20;99.90
7159;DHT22;63175;52.374;13.132;2022-12-07T15:00:15;4.10;99.90
7159;DHT22;63175;52.374;13.132;2022-12-07T15:02:43;4.10;99.90
7159;DHT22;63175;52.374;13.132;2022-12-07T15:05:11;4.10;99.90
7159;DHT22;63175;52.374;13.132;2022-12-07T15:07:39;4.00;99.90
7159;DHT22;63175;52.374;13.132;2022-12-07T15:10:09;4.00;99.90
7159;DHT22;63175;52.374;13.132;2022-12-07T15:12:39;4.00;99.90
7159;DHT22;63175;52.374;13.132;2022-12-07T15:15:07;4.00;99.90
7159;DHT22;63175;52.374;13.132;2022-12-07T15:17:34;3.90;99.90
7159;DHT22;63175;52.374;13.132;2022-12-07T15:20:01;3.90;99.90
7159;DHT22;63175;52.374;13.132;2022-12-07T15:22:30;3.90;99.90
7159;DHT22;63175;52.374;13.132;2022-12-07T15:24:57;3.80;99.90
7159;DHT22;63175;52.374;13.132;2022-12-07T15:27:24;3.90;99.90
7159;DHT22;63175;52.374;13.132;2022-12-07T15:29:51;3.80;99.90
7159;DHT22;63175;52.374;13.132;2022-12-07T15:32:19;3.80;99.90
7159;DHT22;63175;52.374;13.132;2022-12-07T15:34:46;3.80;99.90
7159;DHT22;63175;52.374;13.132;2022-12-07T15:37:12;3.80;99.90
7159;DHT22;63175;52.374;13.132;2022-12-07T15:39:41;3.70;99.90
7159;DHT22;63175;52.374;13.132;2022-12-07T15:42:08;3.70;99.90
7159;DHT22;63175;52.374;13.132;2022-12-07T15:44:34;3.70;99.90
7159;DHT22;63175;52.374;13.132;2022-12-07T15:47:19;3.70;99.90
7159;DHT22;63175;52.374;13.132;2022-12-07T15:49:46;3.70;99.90
7159;DHT22;63175;52.374;13.132;2022-12-07T15:52:13;3.60;99.90
7159;DHT22;63175;52.374;13.132;2022-12-07T15:54:42;3.60;99.90
7159;DHT22;63175;52.374;13.132;2022-12-07T15:57:09;3.60;99.90
7159;DHT22;63175;52.374;13.132;2022-12-07T15:59:36;3.60;99.90
7159;DHT22;63175;52.374;13.132;2022-12-07T16:02:03;3.60;99.90
7159;DHT22;63175;52.374;13.132;2022-12-07T16:04:30;3.60;99.90
7159;DHT22;63175;52.374;13.132;2022-12-07T16:06:57;3.60;99.90
7159;DHT22;63175;52.374;13.132;2022-12-07T16:09:24;3.50;99.90
7159;DHT22;63175;52.374;13.132;2022-12-07T16:11:53;3.50;99.90
7159;DHT22;63175;52.374;13.132;2022-12-07T16:14:20;3.50;99.90
7159;DHT22;63175;52.374;13.132;2022-12-07T16:16:47;3.50;99.90
7159;DHT22;63175;52.374;13.132;2022-12-07T16:19:14;3.50;99.90
7159;DHT22;63175;52.374;13.132;2022-12-07T16:21:41;3.50;99.90
7159;DHT22;63175;52.374;13.132;2022-12-07T16:24:08;3.50;99.90